createdAt,value
2023-05-05T00:00:29.770Z,83.43
2023-05-05T00:02:58.670Z,81.35
2023-05-05T00:05:27.117Z,78.40
2023-05-05T00:07:55.500Z,76.65
2023-05-05T00:10:25.614Z,75.58
2023-05-05T00:12:54.024Z,74.37
2023-05-05T00:15:22.314Z,72.64
2023-05-05T00:17:50.735Z,72.36
2023-05-05T00:20:19.077Z,71.37
2023-05-05T00:22:47.439Z,71.12
2023-05-05T00:25:16.007Z,70.36
2023-05-05T00:27:45.774Z,69.76
2023-05-05T00:30:14.659Z,69.64
2023-05-05T00:32:43.035Z,69.57
2023-05-05T00:35:11.664Z,69.32
2023-05-05T00:37:40.040Z,70.50
2023-05-05T00:40:10.493Z,69.88
2023-05-05T00:42:42.958Z,69.65
2023-05-05T00:45:14.865Z,69.25
2023-05-05T00:47:47.513Z,69.05
2023-05-05T00:50:24.638Z,69.18
2023-05-05T00:52:55.939Z,68.99
2023-05-05T00:55:24.392Z,68.98
2023-05-05T00:57:53.420Z,68.81
2023-05-05T01:00:23.457Z,68.71
2023-05-05T01:02:52.559Z,68.66
2023-05-05T01:05:23.445Z,68.67
2023-05-05T01:08:09.769Z,68.55
2023-05-05T01:10:42.556Z,68.50
2023-05-05T01:13:27.316Z,68.63
2023-05-05T01:16:06.886Z,69.12
2023-05-05T01:18:43.370Z,69.33
2023-05-05T01:21:16.865Z,69.94
2023-05-05T01:24:40.781Z,70.90
2023-05-05T01:27:39.381Z,71.65
2023-05-05T01:30:25.209Z,72.19
2023-05-05T01:32:59.532Z,72.54
2023-05-05T01:35:33.739Z,72.80
2023-05-05T01:38:07.688Z,73.28
2023-05-05T01:40:42.463Z,73.49
2023-05-05T01:43:13.267Z,73.99
2023-05-05T01:45:44.852Z,74.29
2023-05-05T01:48:18.433Z,74.51
2023-05-05T01:50:47.950Z,74.64
2023-05-05T01:53:19.049Z,74.76
2023-05-05T01:55:48.992Z,74.76
2023-05-05T01:58:18.586Z,74.76
2023-05-05T02:00:48.138Z,74.85
2023-05-05T02:03:20.060Z,74.85
2023-05-05T02:05:50.273Z,75.12
2023-05-05T02:08:19.356Z,75.20
2023-05-05T02:10:50.855Z,75.38
2023-05-05T02:13:20.659Z,75.38
2023-05-05T02:15:50.605Z,75.53
2023-05-05T02:18:21.085Z,75.78
2023-05-05T02:20:49.665Z,75.95
2023-05-05T02:23:18.182Z,76.22
2023-05-05T02:25:51.673Z,76.27
2023-05-05T02:28:23.712Z,76.28
2023-05-05T02:30:58.412Z,76.64
2023-05-05T02:33:33.946Z,76.94
2023-05-05T02:36:11.541Z,77.31
2023-05-05T02:38:54.830Z,77.75
2023-05-05T02:41:26.878Z,77.69
2023-05-05T02:43:58.419Z,77.66
2023-05-05T02:46:29.290Z,77.57
2023-05-05T02:49:00.775Z,78.28
2023-05-05T02:51:29.462Z,78.58
2023-05-05T02:54:01.463Z,78.77
2023-05-05T02:56:41.718Z,79.19
2023-05-05T02:59:20.118Z,79.77
2023-05-05T03:02:02.572Z,80.17
2023-05-05T03:04:41.416Z,80.42
2023-05-05T03:07:15.364Z,80.65
2023-05-05T03:09:58.396Z,80.92
2023-05-05T03:12:33.412Z,81.14
2023-05-05T03:15:15.913Z,81.45
2023-05-05T03:17:46.438Z,81.68
2023-05-05T03:20:17.349Z,81.77
2023-05-05T03:22:49.360Z,81.73
2023-05-05T03:25:17.976Z,81.71
2023-05-05T03:27:46.457Z,81.69
2023-05-05T03:30:22.093Z,81.65
2023-05-05T03:32:53.048Z,81.64
2023-05-05T03:35:24.089Z,81.56
2023-05-05T03:37:52.589Z,81.72
2023-05-05T03:40:27.200Z,81.89
2023-05-05T03:43:02.662Z,81.79
2023-05-05T03:45:31.204Z,81.96
2023-05-05T03:47:59.834Z,82.24
2023-05-05T03:50:29.634Z,82.60
2023-05-05T03:52:57.987Z,82.92
2023-05-05T03:55:26.524Z,83.10
2023-05-05T03:57:54.853Z,82.98
2023-05-05T04:00:23.377Z,83.06
2023-05-05T04:02:51.873Z,82.84
2023-05-05T04:05:22.587Z,82.48
2023-05-05T04:07:52.583Z,82.67
2023-05-05T04:10:21.456Z,82.61
2023-05-05T04:12:50.093Z,82.75
2023-05-05T04:15:18.472Z,82.76
2023-05-05T04:17:47.346Z,82.82
2023-05-05T04:20:15.817Z,83.00
2023-05-05T04:22:44.180Z,83.09
2023-05-05T04:25:13.930Z,83.14
2023-05-05T04:27:42.361Z,83.42
2023-05-05T04:30:11.953Z,83.36
2023-05-05T04:32:42.172Z,83.38
2023-05-05T04:35:12.097Z,83.66
2023-05-05T04:37:40.727Z,83.76
2023-05-05T04:40:11.174Z,83.60
2023-05-05T04:42:42.028Z,83.42
2023-05-05T04:45:11.790Z,83.72
2023-05-05T04:47:40.410Z,84.43
2023-05-05T04:50:11.380Z,85.00
2023-05-05T04:52:40.584Z,85.15
2023-05-05T04:55:11.723Z,84.74
2023-05-05T04:57:41.376Z,84.58
2023-05-05T05:00:11.536Z,84.31
2023-05-05T05:02:40.226Z,84.26
2023-05-05T05:05:10.050Z,84.16
2023-05-05T05:07:38.368Z,84.25
2023-05-05T05:10:08.356Z,84.39
2023-05-05T05:12:37.273Z,84.19
2023-05-05T05:15:09.444Z,84.17
2023-05-05T05:17:37.856Z,84.44
2023-05-05T05:20:09.122Z,84.45
2023-05-05T05:22:38.953Z,84.41
2023-05-05T05:25:11.183Z,84.05
2023-05-05T05:27:39.990Z,84.01
2023-05-05T05:30:11.272Z,83.80
2023-05-05T05:32:39.808Z,84.19
2023-05-05T05:35:09.221Z,83.61
2023-05-05T05:37:37.770Z,82.60
2023-05-05T05:40:08.608Z,82.03
2023-05-05T05:42:39.991Z,82.01
2023-05-05T05:45:11.592Z,82.46
2023-05-05T05:47:41.003Z,82.27
2023-05-05T05:50:10.582Z,81.71
2023-05-05T05:52:39.159Z,80.60
2023-05-05T05:55:10.384Z,79.94
2023-05-05T05:57:40.884Z,79.15
2023-05-05T06:00:14.215Z,77.89
2023-05-05T06:02:46.072Z,76.86
2023-05-05T06:05:18.733Z,76.57
2023-05-05T06:07:48.546Z,76.64
2023-05-05T06:10:27.485Z,75.70
2023-05-05T06:13:02.820Z,75.38
2023-05-05T06:15:34.384Z,73.86
2023-05-05T06:18:04.988Z,73.10
2023-05-05T06:20:33.357Z,72.62
2023-05-05T06:23:01.704Z,72.25
2023-05-05T06:25:33.411Z,71.98
2023-05-05T06:28:02.138Z,71.48
2023-05-05T06:30:30.450Z,71.07
2023-05-05T06:33:00.240Z,71.09
2023-05-05T06:35:30.268Z,71.30
2023-05-05T06:37:58.688Z,71.86
2023-05-05T06:40:26.980Z,72.46
2023-05-05T06:42:55.487Z,73.12
2023-05-05T06:45:29.092Z,73.23
2023-05-05T06:47:58.971Z,72.69
2023-05-05T06:50:27.566Z,72.30
2023-05-05T06:52:56.223Z,71.61
2023-05-05T06:55:25.265Z,71.50
2023-05-05T06:57:53.644Z,71.23
2023-05-05T07:00:27.082Z,71.12
2023-05-05T07:02:56.119Z,71.27
2023-05-05T07:05:25.846Z,71.64
2023-05-05T07:07:54.900Z,71.50
2023-05-05T07:10:24.457Z,70.80
2023-05-05T07:12:54.866Z,70.40
2023-05-05T07:15:27.533Z,70.86
2023-05-05T07:17:57.767Z,70.79
2023-05-05T07:20:28.224Z,71.12
2023-05-05T07:22:56.649Z,70.86
2023-05-05T07:25:24.976Z,70.89
2023-05-05T07:27:53.382Z,71.07
2023-05-05T07:30:22.066Z,71.03
2023-05-05T07:32:51.867Z,71.61
2023-05-05T07:35:20.275Z,71.90
2023-05-05T07:37:51.498Z,71.74
2023-05-05T07:40:20.771Z,72.17
2023-05-05T07:42:49.605Z,72.58
2023-05-05T07:45:18.586Z,72.80
2023-05-05T07:47:47.881Z,72.52
2023-05-05T07:50:16.369Z,72.79
2023-05-05T07:52:49.961Z,72.42
2023-05-05T07:55:23.554Z,72.28
2023-05-05T07:57:51.888Z,72.62
2023-05-05T08:00:21.696Z,73.02
2023-05-05T08:02:50.384Z,72.70
2023-05-05T08:05:19.255Z,72.49
2023-05-05T08:07:47.561Z,72.48
2023-05-05T08:10:16.020Z,72.16
2023-05-05T08:12:45.695Z,72.93
2023-05-05T08:15:14.122Z,72.48
2023-05-05T08:17:47.981Z,72.04
2023-05-05T08:20:17.056Z,72.47
2023-05-05T08:22:45.981Z,71.83
2023-05-05T08:25:15.268Z,71.30
2023-05-05T08:27:46.094Z,70.78
2023-05-05T08:30:17.185Z,71.56
2023-05-05T08:32:45.556Z,73.01
2023-05-05T08:35:14.221Z,74.17
2023-05-05T08:37:42.933Z,73.98
2023-05-05T08:40:14.749Z,73.97
2023-05-05T08:42:46.408Z,74.25
2023-05-05T08:45:14.988Z,74.90
2023-05-05T08:47:44.582Z,74.77
2023-05-05T08:50:13.442Z,74.93
2023-05-05T08:52:45.263Z,75.35
2023-05-05T08:55:18.422Z,75.19
2023-05-05T08:57:53.737Z,74.64
2023-05-05T09:00:23.357Z,73.95
2023-05-05T09:02:51.968Z,73.96
2023-05-05T09:05:20.667Z,74.19
2023-05-05T09:07:49.114Z,74.80
2023-05-05T09:10:18.135Z,74.59
2023-05-05T09:12:49.582Z,74.65
2023-05-05T09:15:18.131Z,74.81
2023-05-05T09:17:46.676Z,75.11
2023-05-05T09:20:16.190Z,75.00
2023-05-05T09:22:46.758Z,75.35
2023-05-05T09:25:15.985Z,76.46
2023-05-05T09:27:47.012Z,76.56
2023-05-05T09:30:19.647Z,76.14
2023-05-05T09:32:49.979Z,76.55
2023-05-05T09:35:20.078Z,77.57
2023-05-05T09:37:49.504Z,77.96
2023-05-05T09:40:20.165Z,78.66
2023-05-05T09:42:49.010Z,77.85
2023-05-05T09:45:28.601Z,77.92
2023-05-05T09:48:00.192Z,78.81
2023-05-05T09:50:30.889Z,79.14
2023-05-05T09:53:01.028Z,78.64
2023-05-05T09:55:30.998Z,78.74
2023-05-05T09:58:18.183Z,78.63
2023-05-05T10:00:48.494Z,77.99
2023-05-05T10:03:17.276Z,76.89
2023-05-05T10:05:51.663Z,77.21
2023-05-05T10:08:21.714Z,77.11
2023-05-05T10:10:53.984Z,76.63
2023-05-05T10:13:24.223Z,76.56
2023-05-05T10:15:57.299Z,76.08
2023-05-05T10:18:27.324Z,76.80
2023-05-05T10:20:59.642Z,77.15
2023-05-05T10:23:39.375Z,76.45
2023-05-05T10:26:09.634Z,75.89
2023-05-05T10:28:46.793Z,75.79
2023-05-05T10:31:26.493Z,75.71
2023-05-05T10:34:05.441Z,76.33
2023-05-05T10:36:35.409Z,76.14
2023-05-05T10:39:06.729Z,77.05
2023-05-05T10:41:36.259Z,77.55
2023-05-05T10:44:06.510Z,78.55
2023-05-05T10:46:36.484Z,78.96
2023-05-05T10:49:15.802Z,78.57
2023-05-05T10:51:54.295Z,79.56
2023-05-05T10:54:29.909Z,80.29
2023-05-05T10:57:01.264Z,80.20
2023-05-05T10:59:48.189Z,81.55
2023-05-05T11:02:26.471Z,81.20
2023-05-05T11:05:15.258Z,82.30
2023-05-05T11:07:44.695Z,83.18
2023-05-05T11:10:15.175Z,83.99
2023-05-05T11:13:22.024Z,85.07
2023-05-05T11:15:52.427Z,85.35
2023-05-05T11:18:37.457Z,85.18
2023-05-05T11:21:17.803Z,86.21
2023-05-05T11:23:48.818Z,87.35
2023-05-05T11:26:19.419Z,88.24
2023-05-05T11:28:59.402Z,89.00
2023-05-05T11:31:28.371Z,89.41
2023-05-05T11:34:30.249Z,89.20
2023-05-05T11:37:03.009Z,89.58
2023-05-05T11:39:42.421Z,91.22
2023-05-05T11:42:25.917Z,92.04
2023-05-05T11:44:55.741Z,93.30
2023-05-05T11:47:33.796Z,95.61
2023-05-05T11:50:23.269Z,96.50
2023-05-05T11:52:51.872Z,98.50
2023-05-05T11:55:23.970Z,98.59
2023-05-05T11:57:52.438Z,99.51
2023-05-05T12:00:21.792Z,100.00
2023-05-05T12:02:58.462Z,100.00
2023-05-05T12:05:28.353Z,100.00
2023-05-05T12:08:00.042Z,100.00
2023-05-05T12:10:28.952Z,99.86
2023-05-05T12:12:57.453Z,99.11
2023-05-05T12:15:33.249Z,99.58
2023-05-05T12:18:03.089Z,99.41
2023-05-05T12:20:35.004Z,98.41
2023-05-05T12:23:05.066Z,98.49
2023-05-05T12:25:38.389Z,99.60
2023-05-05T12:28:09.343Z,100.00
2023-05-05T12:30:37.922Z,100.00
2023-05-05T12:33:08.402Z,100.00
2023-05-05T12:35:38.560Z,100.00
2023-05-05T12:38:07.008Z,100.00
2023-05-05T12:40:47.040Z,100.00
2023-05-05T12:43:31.144Z,100.00
2023-05-05T12:46:04.942Z,100.00
2023-05-05T12:48:33.841Z,100.00
2023-05-05T12:51:19.727Z,100.00
2023-05-05T12:53:49.162Z,100.00
2023-05-05T12:56:34.390Z,100.00
2023-05-05T12:59:03.793Z,100.00
2023-05-05T13:01:32.579Z,100.00
2023-05-05T13:04:13.181Z,100.00
2023-05-05T13:06:45.138Z,100.00
2023-05-05T13:09:25.205Z,100.00
2023-05-05T13:11:54.496Z,100.00
2023-05-05T13:14:23.767Z,100.00
2023-05-05T13:16:52.290Z,100.00
2023-05-05T13:19:20.691Z,100.00
2023-05-05T13:21:50.675Z,100.00
2023-05-05T13:24:28.687Z,100.00
2023-05-05T13:27:04.348Z,100.00
2023-05-05T13:29:33.706Z,100.00
2023-05-05T13:32:02.036Z,100.00
2023-05-05T13:34:30.388Z,100.00
2023-05-05T13:37:00.078Z,100.00
2023-05-05T13:39:28.355Z,100.00
2023-05-05T13:41:56.907Z,100.00
2023-05-05T13:44:25.237Z,100.00
2023-05-05T13:46:53.973Z,100.00
2023-05-05T13:49:22.314Z,100.00
2023-05-05T13:51:50.816Z,100.00
2023-05-05T13:54:20.534Z,99.79
2023-05-05T13:56:49.004Z,98.67
2023-05-05T13:59:17.395Z,97.00
2023-05-05T14:01:45.662Z,97.62
2023-05-05T14:04:14.099Z,98.23
2023-05-05T14:06:42.558Z,97.10
2023-05-05T14:09:10.931Z,95.36
2023-05-05T14:11:41.136Z,95.03
2023-05-05T14:14:09.462Z,92.81
2023-05-05T14:16:37.940Z,93.25
2023-05-05T14:19:06.740Z,93.29
2023-05-05T14:21:35.010Z,94.94
2023-05-05T14:24:03.461Z,93.28
2023-05-05T14:26:31.969Z,91.69
2023-05-05T14:29:01.745Z,93.46
2023-05-05T14:31:30.117Z,92.30
2023-05-05T14:33:58.621Z,88.95
2023-05-05T14:36:26.934Z,90.79
2023-05-05T14:38:55.443Z,90.03
2023-05-05T14:41:23.974Z,88.35
2023-05-05T14:43:52.337Z,88.25
2023-05-05T14:46:22.205Z,86.06
2023-05-05T14:48:50.624Z,85.16
2023-05-05T14:51:18.998Z,85.57
2023-05-05T14:53:47.815Z,86.35
2023-05-05T14:56:16.968Z,85.11
2023-05-05T14:58:46.414Z,84.75
2023-05-05T15:01:15.835Z,85.89
2023-05-05T15:03:45.676Z,86.84
2023-05-05T15:06:14.281Z,85.93
2023-05-05T15:08:42.725Z,83.91
2023-05-05T15:11:11.177Z,83.60
2023-05-05T15:13:41.402Z,83.37
2023-05-05T15:16:10.131Z,81.87
2023-05-05T15:18:38.605Z,81.88
2023-05-05T15:21:08.538Z,81.91
2023-05-05T15:23:37.118Z,80.27
2023-05-05T15:26:05.460Z,79.10
2023-05-05T15:28:33.816Z,78.54
2023-05-05T15:31:02.670Z,77.88
2023-05-05T15:33:31.805Z,77.36
2023-05-05T15:36:00.312Z,76.93
2023-05-05T15:38:31.304Z,77.23
2023-05-05T15:40:59.756Z,76.88
2023-05-05T15:43:28.374Z,75.82
2023-05-05T15:45:56.734Z,76.34
2023-05-05T15:48:25.034Z,77.44
2023-05-05T15:50:53.467Z,77.75
2023-05-05T15:53:21.805Z,77.49
2023-05-05T15:55:51.462Z,77.47
2023-05-05T15:58:19.960Z,77.27
2023-05-05T16:00:48.368Z,76.03
2023-05-05T16:03:16.832Z,74.31
2023-05-05T16:05:45.319Z,73.99
2023-05-05T16:08:13.883Z,73.58
2023-05-05T16:10:42.377Z,73.13
2023-05-05T16:13:12.147Z,72.64
2023-05-05T16:15:40.907Z,72.53
2023-05-05T16:18:09.246Z,71.93
2023-05-05T16:20:37.648Z,71.20
2023-05-05T16:23:06.820Z,71.12
2023-05-05T16:25:35.200Z,70.29
2023-05-05T16:28:03.532Z,69.93
2023-05-05T16:30:33.295Z,69.90
2023-05-05T16:33:01.813Z,69.49
2023-05-05T16:35:30.164Z,69.54
2023-05-05T16:37:58.573Z,68.85
2023-05-05T16:40:26.951Z,68.37
2023-05-05T16:42:55.357Z,68.81
2023-05-05T16:45:24.419Z,68.41
2023-05-05T16:47:55.370Z,67.84
2023-05-05T16:50:24.475Z,67.73
2023-05-05T16:52:52.893Z,67.43
2023-05-05T16:55:21.793Z,67.52
2023-05-05T16:57:50.136Z,67.78
2023-05-05T17:00:18.936Z,68.48
2023-05-05T17:02:47.365Z,68.76
2023-05-05T17:05:17.684Z,68.68
2023-05-05T17:07:48.324Z,68.61
2023-05-05T17:10:16.708Z,68.51
2023-05-05T17:12:45.076Z,68.39
2023-05-05T17:15:13.588Z,68.62
2023-05-05T17:17:43.005Z,68.60
2023-05-05T17:20:13.059Z,68.19
2023-05-05T17:22:42.773Z,67.75
2023-05-05T17:25:11.727Z,67.55
2023-05-05T17:27:40.309Z,67.54
2023-05-05T17:30:10.440Z,67.31
2023-05-05T17:32:38.980Z,67.26
2023-05-05T17:35:08.469Z,66.95
2023-05-05T17:37:37.682Z,66.80
2023-05-05T17:40:09.381Z,66.44
2023-05-05T17:42:38.314Z,66.26
2023-05-05T17:45:08.724Z,66.38
2023-05-05T17:47:37.413Z,66.45
2023-05-05T17:50:07.233Z,66.80
2023-05-05T17:52:35.576Z,66.83
2023-05-05T17:55:03.860Z,66.93
2023-05-05T17:57:33.568Z,67.01
2023-05-05T18:00:05.716Z,67.42
2023-05-05T18:02:41.160Z,68.54
2023-05-05T18:05:10.751Z,69.29
2023-05-05T18:07:39.642Z,69.72
2023-05-05T18:10:10.648Z,69.97
2023-05-05T18:12:40.422Z,70.08
2023-05-05T18:15:10.244Z,70.22
2023-05-05T18:17:39.057Z,70.57
2023-05-05T18:20:09.165Z,70.63
2023-05-05T18:22:37.554Z,70.68
2023-05-05T18:25:08.261Z,70.83
2023-05-05T18:27:37.325Z,70.81
2023-05-05T18:30:09.198Z,71.46
2023-05-05T18:32:38.470Z,72.16
2023-05-05T18:35:08.377Z,73.06
2023-05-05T18:37:37.125Z,73.21
2023-05-05T18:40:09.940Z,72.85
2023-05-05T18:42:38.351Z,72.49
2023-05-05T18:45:10.589Z,72.46
2023-05-05T18:47:39.958Z,72.50
2023-05-05T18:50:10.629Z,72.95
2023-05-05T18:52:38.911Z,73.72
2023-05-05T18:55:08.193Z,73.63
2023-05-05T18:57:36.740Z,73.61
2023-05-05T19:00:07.906Z,73.06
2023-05-05T19:02:36.541Z,72.96
2023-05-05T19:05:05.571Z,73.57
2023-05-05T19:07:35.881Z,74.31
2023-05-05T19:10:06.115Z,74.52
2023-05-05T19:12:34.762Z,75.42
2023-05-05T19:15:03.243Z,76.48
2023-05-05T19:17:33.416Z,76.64
2023-05-05T19:20:02.358Z,76.80
2023-05-05T19:22:30.660Z,76.81
2023-05-05T19:24:59.007Z,76.67
2023-05-05T19:27:27.358Z,77.13
2023-05-05T19:29:55.793Z,77.79
2023-05-05T19:32:24.123Z,78.00
2023-05-05T19:34:54.589Z,78.08
2023-05-05T19:37:23.020Z,78.10
2023-05-05T19:39:51.727Z,78.15
2023-05-05T19:42:20.397Z,78.50
2023-05-05T19:44:48.761Z,79.37
2023-05-05T19:47:17.990Z,79.71
2023-05-05T19:49:46.399Z,80.16
2023-05-05T19:52:16.143Z,80.87
2023-05-05T19:54:44.677Z,81.30
2023-05-05T19:57:13.348Z,81.72
2023-05-05T19:59:42.216Z,82.44
2023-05-05T20:02:11.685Z,82.63
2023-05-05T20:04:40.222Z,83.08
2023-05-05T20:07:08.581Z,83.28
2023-05-05T20:09:39.433Z,84.07
2023-05-05T20:12:08.809Z,84.58
2023-05-05T20:14:37.147Z,85.07
2023-05-05T20:17:05.645Z,85.42
2023-05-05T20:19:38.599Z,85.57
2023-05-05T20:22:07.136Z,85.88
2023-05-05T20:24:36.937Z,86.24
2023-05-05T20:27:05.740Z,86.54
2023-05-05T20:29:34.169Z,87.25
2023-05-05T20:32:02.580Z,87.67
2023-05-05T20:34:31.552Z,87.83
2023-05-05T20:36:59.965Z,87.82
2023-05-05T20:39:28.347Z,87.60
2023-05-05T20:41:58.232Z,87.93
2023-05-05T20:44:26.715Z,88.07
2023-05-05T20:46:55.284Z,88.15
2023-05-05T20:49:23.613Z,88.05
2023-05-05T20:51:52.228Z,88.57
2023-05-05T20:54:20.606Z,89.31
2023-05-05T20:56:49.019Z,89.47
2023-05-05T20:59:18.815Z,89.42
2023-05-05T21:01:47.201Z,89.72
2023-05-05T21:04:15.818Z,89.95
2023-05-05T21:06:44.267Z,90.61
2023-05-05T21:09:12.961Z,91.43
2023-05-05T21:11:41.376Z,91.90
2023-05-05T21:14:10.664Z,92.10
2023-05-05T21:16:40.494Z,92.54
2023-05-05T21:19:08.982Z,93.53
2023-05-05T21:21:37.479Z,93.61
2023-05-05T21:24:08.097Z,93.67
2023-05-05T21:26:36.821Z,93.81
2023-05-05T21:29:05.133Z,93.37
2023-05-05T21:31:33.617Z,93.41
2023-05-05T21:34:04.070Z,93.60
2023-05-05T21:36:33.927Z,93.42
2023-05-05T21:39:02.607Z,93.25
2023-05-05T21:41:30.962Z,93.12
2023-05-05T21:44:02.359Z,92.73
2023-05-05T21:46:31.420Z,92.22
2023-05-05T21:48:59.834Z,91.87
2023-05-05T21:51:29.820Z,91.81
2023-05-05T21:53:58.852Z,91.73
2023-05-05T21:56:27.242Z,91.68
2023-05-05T21:58:55.620Z,91.79
2023-05-05T22:01:24.121Z,92.38
2023-05-05T22:03:52.744Z,92.70
2023-05-05T22:06:21.484Z,93.15
2023-05-05T22:08:51.855Z,94.77
2023-05-05T22:11:20.869Z,96.04
2023-05-05T22:13:49.205Z,96.68
2023-05-05T22:16:18.267Z,96.86
2023-05-05T22:18:47.213Z,96.70
2023-05-05T22:21:15.778Z,96.73
2023-05-05T22:23:44.128Z,96.69
2023-05-05T22:26:14.003Z,96.89
2023-05-05T22:28:42.862Z,97.24
2023-05-05T22:31:11.858Z,97.23
2023-05-05T22:33:40.714Z,97.51
2023-05-05T22:36:11.518Z,97.46
2023-05-05T22:38:39.966Z,97.09
2023-05-05T22:41:08.389Z,97.37
2023-05-05T22:43:38.083Z,97.33
2023-05-05T22:46:06.712Z,97.16
2023-05-05T22:48:35.009Z,96.98
2023-05-05T22:51:03.672Z,96.81
2023-05-05T22:53:31.976Z,96.77
2023-05-05T22:56:00.647Z,96.76
2023-05-05T22:58:29.318Z,96.98
2023-05-05T23:00:59.210Z,97.05
2023-05-05T23:03:28.692Z,97.17
2023-05-05T23:05:59.167Z,97.70
2023-05-05T23:08:27.483Z,99.06
2023-05-05T23:10:55.870Z,99.72
2023-05-05T23:13:24.178Z,100.00
2023-05-05T23:15:52.552Z,100.00
2023-05-05T23:18:22.272Z,100.00
2023-05-05T23:20:50.578Z,100.00
2023-05-05T23:23:18.946Z,100.00
2023-05-05T23:25:47.287Z,100.00
2023-05-05T23:28:15.637Z,100.00
2023-05-05T23:30:43.984Z,100.00
2023-05-05T23:33:12.314Z,100.00
2023-05-05T23:35:43.509Z,100.00
2023-05-05T23:38:11.921Z,100.00
2023-05-05T23:40:40.307Z,100.00
2023-05-05T23:43:08.807Z,100.00
2023-05-05T23:45:37.098Z,100.00
2023-05-05T23:48:05.762Z,100.00
2023-05-05T23:50:34.140Z,100.00
2023-05-05T23:53:03.921Z,100.00
2023-05-05T23:55:32.262Z,100.00
2023-05-05T23:58:00.524Z,100.00
